Tiempo atmosférico en la estación meteorológica de Albacete, Albacete (674 m.)



Fecha
DESCASC
Temp. máxima en grados centígrados (hora)
DESCASC
Temp. mínima en grados centígrados (hora)
DESCASC
Temp. media en grados centígrados
DESCASC
Racha de viento máxima en m/sg (hora)
DESCASC
Velocidad máxima media en intervalos de 10 minutos(hora)
DESCASC
Precipitaciones diarias en mm
DESCASC
Precipitaciones de 00:00 a 06:00 en mm
DESCASC
Precipitaciones de 06:00 a 12:00 en mm
DESCASC
Precipitaciones de 12:00 a 18:00 en mm
DESCASC
Precipitaciones de 18:00 a 24:00 en mm
DESCASC
21-02-2019 18.6 (16:10) -0.5 (08:30) 9.1 6.11 (17:30) 1.67 (16:50) 0 0 0 0 0
20-02-2019 17 (17:10) 0.1 (07:10) 8.6 5.28 (23:00) 2.5 (23:00) 0 0 0 0 0
19-02-2019 16.5 (15:50) 1.3 (08:30) 8.9 4.72 (21:00) 2.22 (21:00) 0 0 0 0 0
18-02-2019 15.9 (15:40) 3.2 (08:40) 9.5 7.5 (16:50) 3.33 (14:40) 0 0 0 0 0
17-02-2019 15.8 (15:20) -1.5 (-00:0) 7.2 7.22 (16:20) 3.06 (18:30) 0 0 0 0 0
16-02-2019 17.1 (15:00) 3 (00:00) 10.1 8.61 (14:40) 3.06 (14:20) 0 0 0 0 0
15-02-2019 16.8 (16:10) 5 (00:00) 10.9 7.5 (15:20) 2.78 (15:20) 0 0 0 0 0
14-02-2019 14.7 (15:50) 2.3 (00:00) 8.5 7.78 (16:50) 3.61 (10:10) 0 0 0 0 0
13-02-2019 16.6 (16:20) 0.8 (00:00) 8.7 6.94 (14:20) 3.61 (14:30) 0 0 0 0 0
12-02-2019 15.3 (15:30) 2 (00:00) 8.7 6.11 (17:30) 2.5 (17:00) 0 0 0 0 0
11-02-2019 16.4 (16:30) 4.9 (00:00) 10.6 8.33 (00:10) 3.61 (04:00) 0 0 0 0 0
10-02-2019 13.4 (15:50) 4 (00:00) 8.7 11.11 (13:50) 4.72 (14:20) 0 0 0 0 0
09-02-2019 18.2 (16:30) 1 (00:00) 9.6 4.17 (00:10) 1.67 (16:00) 0 0 0 0 0
08-02-2019 19.6 (16:10) 0.7 (00:00) 10.2 4.17 (16:40) 1.39 (15:10) 0 0 0 0 0
07-02-2019 17.7 (16:10) 2.5 (00:00) 10.1 6.11 (15:30) 2.5 (15:30) 0 0 0 0 0
06-02-2019 19 (15:40) 0.8 (00:00) 9.9 4.44 (16:20) 1.67 (15:50) 0 0 0 0 0
05-02-2019 16.5 (15:40) -0.7 (-00:0) 7.9 6.67 (18:40) 3.33 (18:40) 0 0 0 0 0
04-02-2019 -- (--) -- (--) -- -- (--) -- (--) -- 0 0 0 --
03-02-2019 8.5 (14:40) -0.4 (00:00) 4 12.22 (09:50) 4.44 (09:50) 0 0 0 0 0
02-02-2019 8.5 (15:50) 0.6 (00:00) 4.6 14.17 (12:40) 6.39 (12:40) 0 0 0 0 0
01-02-2019 11.5 (04:10) 4.3 (00:00) 7.9 19.72 (14:00) 9.17 (13:50) 2.9 0 1.3 0.1 1.5
31-01-2019 13.9 (16:00) 7.5 (00:00) 10.7 16.67 (15:40) 7.78 (15:40) 0.1 0.1 0 0 0
30-01-2019 11.2 (15:50) 6.3 (00:00) 8.8 11.39 (20:10) 6.11 (20:10) 0.1 0.1 0 0 0
29-01-2019 10 (15:30) 2.6 (00:00) 6.3 16.39 (15:10) 7.5 (15:20) 0.1 0 0 0 0.1
28-01-2019 13.8 (15:40) 1.9 (00:00) 7.9 13.61 (13:30) 5.83 (16:10) 0 0 0 0 0
27-01-2019 12.7 (16:00) 0.7 (00:00) 6.7 11.94 (17:20) 4.72 (11:50) 0 0 0 0 0
26-01-2019 16.7 (15:50) 1.6 (00:00) 9.2 6.39 (17:10) 2.5 (17:10) 0 0 0 0 0
25-01-2019 16.2 (16:10) 4.8 (00:00) 10.5 9.72 (14:00) 3.33 (11:10) 0 0 0 0 0
24-01-2019 12.3 (14:00) 6.3 (00:00) 9.3 12.22 (09:20) 5.28 (03:30) 0.2 0 0 0.1 0.1

Gráficas

Temp. máximas Temp. mínimas Temp. medias Precipitaciones Rachas de viento máximas Velocidades máximas media en intervalos de 10 minutos

Datos horarios

Fecha y hora oficial Temperatura (ºC) Velocidad del viento (km/h) Dirección del viento Racha (km/h) Dirección de racha Precipitación (mm) Presión (hPa) Tendencia (hPa) Humedad (%)
2019-02-22 23:00:00 8.9 4 Oeste 12 Oeste 0 951.2 1 37
2019-02-22 22:00:00 10.8 4 Sudoeste 15 Oeste 0 951 0.9 32
2019-02-22 21:00:00 12.2 4 Oeste 10 Sudoeste 0 950.5 0.8 30
2019-02-22 20:00:00 13.1 2 Oeste 7 Oeste 0 950.2 0.4 26
2019-02-22 19:00:00 16.3 0 Calma 4 Norte 0 950.1 0.1 22
2019-02-22 18:00:00 19.9 0 Calma 10 Norte 0 949.7 -0.4 16
2019-02-22 17:00:00 20.7 0 Calma 9 Oeste 0 949.8 -0.9 16
2019-02-22 16:00:00 21.3 2 Noroeste 8 Oeste 0 950 -2.1 19
2019-02-22 15:00:00 20.7 0 Calma 9 Este 0 950.1 -2.5 22
2019-02-22 14:00:00 18.1 0 Calma 9 Este 0 950.7 -2.5 27
2019-02-22 13:00:00 15.7 3 Nordeste 10 Nordeste 0 952.1 -1 36
2019-02-22 12:00:00 12.8 0 Calma 5 Este 0 952.6 -0.4 39
2019-02-22 11:00:00 7.2 2 Oeste 6 Sudoeste 0 953.2 0.4 47
2019-02-22 10:00:00 3.3 0 Calma 5 Sudoeste 0 953.1 0.6 58
2019-02-22 09:00:00 1.4 0 Calma 4 Oeste 0 953 0.5 67
2019-02-22 08:00:00 0.6 0 Calma 0 Calma 0 952.8 0.3 73
2019-02-22 07:00:00 1 0 Calma 7 Sudoeste 0 952.5 -0.1 74
2019-02-22 06:00:00 1.7 0 Calma 6 Sudoeste 0 952.5 0.2 72
2019-02-22 05:00:00 1.7 0 Calma -- -- 0 952.5 0.2 82
2019-02-22 04:00:00 2.3 0 Calma 6 Oeste 0 952.6 0.2 76
2019-02-22 03:00:00 3.1 0 Calma -- -- 0 952.3 0.1 72
2019-02-22 02:00:00 3.9 0 Calma 8 Este 0 952.3 0.1 69
2019-02-22 01:00:00 5.7 5 Este 9 Este 0 952.4 0.7 63
2019-02-22 00:00:00 6.6 2 Este 8 Este 0 952.2 1.3 56
2019-02-21 23:00:00 7.5 3 Este 11 Este 0 952.2 1.9 50
2019-02-21 22:00:00 9.2 2 Sudeste 14 Sur 0 951.7 2.1 43
2019-02-21 21:00:00 10.3 2 Sur 16 Sudoeste 0 950.9 1.5 38
2019-02-21 20:00:00 11.9 6 Sur 20 Sur 0 950.3 1.3 36
2019-02-21 19:00:00 13.7 4 Sur 14 Sudoeste 0 949.6 0.5 33
2019-02-21 18:00:00 15.2 6 Sur 22 Sudoeste 0 949.4 0.4 30
2019-02-21 17:00:00 17.3 4 Sur 16 Este 0 949 -0.2 29
2019-02-21 16:00:00 18.4 2 Este 10 Sudeste 0 949.1 -0.5 29
2019-02-21 15:00:00 16.8 4 Este 12 Este 0 949 -0.9 35
2019-02-21 14:00:00 15.9 4 Este 9 Este 0 949.2 -0.7 43
2019-02-21 13:00:00 13.4 2 Este 10 Nordeste 0 949.6 -0.3 53
2019-02-21 12:00:00 10.5 3 Norte 11 Sur 0 949.9 0.4 66
2019-02-21 11:00:00 5.6 0 Calma 7 Sudoeste 0 949.9 1.2 98
2019-02-21 10:00:00 3.2 0 Calma 6 Oeste 0 949.9 1.6 98
2019-02-21 09:00:00 0.2 0 Calma 6 Este 0 949.5 1.4 98
2019-02-21 08:00:00 -0.2 0 Calma 5 Este 0 948.7 0.9 98
2019-02-21 07:00:00 0 0 Calma 6 Este 0 948.3 0.3 98
2019-02-21 06:00:00 0.3 4 Nordeste 9 Este 0 948.1 0 98
2019-02-21 05:00:00 2.1 3 Este 6 Nordeste 0 947.8 0 96
2019-02-21 04:00:00 3.9 0 Calma 5 Este 0 948 0.2 96
2019-02-21 03:00:00 4.7 0 Calma 16 Sudeste 0 948.1 0.7 94
2019-02-21 02:00:00 5.3 0 Calma 13 Sudeste 0 947.8 0.8 86
2019-02-21 01:00:00 6.3 0 Calma 18 Sudeste 0 947.8 1.2 77
2019-02-21 00:00:00 7.1 4 Sudeste 19 Sudeste 0 947.4 1.4 70
2019-02-20 23:00:00 8 9 Sudeste 19 Sudeste 0 947 1.7 60
2019-02-20 22:00:00 9.3 4 Sudeste 17 Sudeste 0 946.6 1.9 50
2019-02-20 21:00:00 10.8 4 Sur 13 Sur 0 946 1.7 46
2019-02-20 20:00:00 11.3 0 Calma 6 Sudoeste 0 945.3 0.9 43
2019-02-20 19:00:00 13.4 2 Nordeste 7 Nordeste 0 944.7 0.5 39
2019-02-20 18:00:00 15.6 3 Nordeste 9 Nordeste 0 944.3 -0.2 36
2019-02-20 17:00:00 16.7 0 Calma 11 Nordeste 0 944.4 -0.7 36
2019-02-20 16:00:00 16.4 2 Norte 9 Nordeste 0 944.2 -1.5 37
2019-02-20 15:00:00 15.6 0 Calma 9 Nordeste 0 944.5 -1.3 38
2019-02-20 14:00:00 14.7 0 Calma 9 Este 0 945.1 -0.6 48
2019-02-20 13:00:00 11.8 4 Nordeste 13 Nordeste 0 945.7 0.2 60
2019-02-20 12:00:00 9.7 3 Nordeste 10 Nordeste 0 945.8 0.9 70
2019-02-20 11:00:00 5.9 0 Calma 6 Nordeste 0 945.7 1.5 88
2019-02-20 10:00:00 2.7 0 Calma 0 Calma 0 945.5 2 92
2019-02-20 09:00:00 0.9 0 Calma 0 Calma 0 944.9 1.5 98
2019-02-20 08:00:00 0.3 0 Calma -- -- 0 944.2 1 98
2019-02-20 07:00:00 0.2 0 Calma -- -- 0 943.5 0 98
2019-02-20 06:00:00 0.6 0 Calma 2 Este 0 943.4 -0.2 97
2019-02-20 05:00:00 0.8 0 Calma 2 Este 0 943.2 -0.5 96
2019-02-20 04:00:00 1.4 0 Calma 5 Este 0 943.5 0 94
2019-02-20 03:00:00 2.3 0 Calma -- -- 0 943.6 0.2 91
2019-02-20 02:00:00 3.3 0 Calma 7 Nordeste 0 943.7 0.4 89
2019-02-20 01:00:00 5.3 0 Calma 10 Sudeste 0 943.5 0.8 88
2019-02-20 00:00:00 6.1 0 Calma 13 Sudeste 0 943.4 1.4 83
2019-02-19 23:00:00 7.4 0 Calma 17 Este 0 943.3 2 75
2019-02-19 22:00:00 8.4 6 Sudeste 17 Sudeste 0 942.7 2.2 58
2019-02-19 21:00:00 9.6 8 Sudeste 17 Sudeste 0 942 2.2 48
2019-02-19 20:00:00 10.3 2 Este 9 Este 0 941.3 1.3 47
2019-02-19 19:00:00 12.5 4 Nordeste 10 Este 0 940.5 0.3 40
2019-02-19 18:00:00 14.7 4 Nordeste 13 Este 0 939.8 -0.6 33
2019-02-19 17:00:00 15.7 4 Este 12 Este 0 940 -1.1 33
2019-02-19 16:00:00 16.2 2 Nordeste 11 Este 0 940.2 -1.8 33
2019-02-19 15:00:00 15.9 2 Sur 12 Sudoeste 0 940.4 -2.1 34
2019-02-19 14:00:00 14.9 2 Sur 13 Este 0 941.1 -1.4 39
2019-02-19 13:00:00 13.6 3 Este 13 Nordeste 0 942 -0.5 46
2019-02-19 12:00:00 10.3 3 Este 10 Nordeste 0 942.5 0.3 64
2019-02-19 11:00:00 6.2 0 Calma 5 Este 0 942.5 1.3 83
2019-02-19 10:00:00 2.9 0 Calma 3 Nordeste 0 942.5 1.2 96
2019-02-19 09:00:00 1.6 0 Calma 3 Oeste 0 942.2 0.8 98
2019-02-19 08:00:00 1.4 0 Calma 8 Este 0 941.2 -0.2 98
2019-02-19 07:00:00 2.1 3 Este 12 Sudeste 0 941.3 -0.3 98
2019-02-19 06:00:00 2.3 0 Calma 5 Este 0 941.4 -0.3 98
2019-02-19 05:00:00 3 0 Calma 7 Sudeste 0 941.4 -0.4 98
2019-02-19 04:00:00 3 0 Calma 3 Nordeste 0 941.6 -0.1 97
2019-02-19 03:00:00 3.8 0 Calma 5 Sudeste 0 941.7 0 94
2019-02-19 02:00:00 4.6 2 Este 13 Sudeste 0 941.8 0 93
2019-02-19 01:00:00 5.5 0 Calma 10 Sudeste 0 941.7 0.2 93
2019-02-19 00:00:00 6 0 Calma 19 Sudeste 0 941.7 0.6 90
2019-02-18 23:00:00 7 2 Este 19 Sudeste 0 941.8 1.3 86
2019-02-18 22:00:00 7.4 0 Calma 12 Este 0 941.5 1.7 81
2019-02-18 21:00:00 8.4 2 Nordeste 16 Sudeste 0 941.1 1.8 67
2019-02-18 20:00:00 10.4 4 Sudeste 13 Sur 0 940.5 1.4 61
2019-02-18 19:00:00 11.5 3 Sudeste 17 Sudoeste 0 939.8 0.5 53
2019-02-18 18:00:00 13.3 5 Sudeste 26 Sudoeste 0 939.3 -0.3 41
2019-02-18 17:00:00 14.9 12 Sudeste 27 Sudeste 0 939.1 -1.4 37
2019-02-18 16:00:00 15.3 9 Sudeste 24 Sur 0 939.3 -2.1 35
2019-02-18 15:00:00 14.9 10 Sudeste 27 Sur 0 939.6 -2.6 36
2019-02-18 14:00:00 14.8 6 Sudeste 26 Sudeste 0 940.5 -1.8 42
2019-02-18 13:00:00 13.1 10 Sudeste 23 Sudeste 0 941.4 -1.1 46
2019-02-18 12:00:00 10.7 5 Este 23 Este 0 942.2 0.2 60
2019-02-18 11:00:00 7.5 6 Este 23 Sudeste 0 942.3 0.6 80
2019-02-18 10:00:00 5.2 5 Este 18 Este 0 942.5 0.9 95
2019-02-18 09:00:00 3.6 5 Nordeste 14 Este 0 942 0.2 97
2019-02-18 08:00:00 3.7 0 Calma 10 Este 0 941.7 -0.4 95
2019-02-18 07:00:00 4.2 3 Este 14 Este 0 941.6 -0.9 93
2019-02-18 06:00:00 4.9 3 Sudeste 18 Este 0 941.8 -1 92
2019-02-18 05:00:00 5.3 0 Calma 15 Nordeste 0 942.1 -1.1 92
2019-02-18 04:00:00 5.4 3 Este 18 Nordeste 0 942.5 -1 89
2019-02-18 03:00:00 6.3 5 Sudeste 22 Sudeste 0 942.8 -0.8 88
2019-02-18 02:00:00 6.9 3 Este 20 Sudeste 0 943.2 -0.7 87
2019-02-18 01:00:00 7.2 0 Calma 14 Sudeste 0 943.5 -0.2 87
2019-02-18 00:00:00 7.2 4 Este 18 Este 0 943.6 0.2 86
2019-02-17 23:00:00 7.8 4 Este 16 Nordeste 0 943.9 0.9 86
2019-02-17 22:00:00 7.7 2 Sudeste 18 Sudeste 0 943.7 1.1 81
2019-02-17 21:00:00 8.8 7 Sudeste 19 Sudeste 0 943.4 0.7 75
2019-02-17 20:00:00 9.8 8 Sudeste 24 Sudeste 0 943 -0.2 64
2019-02-17 19:00:00 11.2 9 Sudeste 21 Sudeste 0 942.6 -1.1 54
2019-02-17 18:00:00 13 8 Sudeste 22 Sudeste 0 942.7 -1.2 45
2019-02-17 17:00:00 14.5 9 Sudeste 26 Sudeste 0 943.2 -1.6 43
2019-02-17 16:00:00 13.6 7 Sudeste 24 Sur 0 943.7 -2 42
2019-02-17 15:00:00 14.9 6 Sudeste 21 Sur 0 943.9 -2.5 39
2019-02-17 14:00:00 14.4 5 Sudeste 19 Sudeste 0 944.8 -1.9 40
2019-02-17 13:00:00 12.8 3 Nordeste 12 Nordeste 0 945.7 -1.2 38
2019-02-17 12:00:00 10.5 3 Nordeste 10 Este 0 946.4 -0.4 45
2019-02-17 11:00:00 5.8 4 Este 9 Este 0 946.7 0.1 56
2019-02-17 10:00:00 2 4 Nordeste 7 Este 0 946.9 0.9 66
2019-02-17 09:00:00 -1 0 Calma -- -- 0 946.8 0.6 70
2019-02-17 08:00:00 -1.3 0 Calma -- -- 0 946.6 0.5 69
2019-02-17 07:00:00 -1 0 Calma -- -- 0 946 -0.5 69
2019-02-17 06:00:00 -0.4 0 Calma -- -- 0 946.2 -0.8 67
2019-02-17 05:00:00 0.9 0 Calma -- -- 0 946.1 -1.1 62
2019-02-17 04:00:00 1.8 0 Calma 6 Sudeste 0 946.5 -1.2 60
2019-02-17 03:00:00 2.8 2 Este 11 Sudeste 0 947 -0.8 63
2019-02-17 02:00:00 3.5 4 Sudeste 10 Sudeste 0 947.2 -0.9 67
2019-02-17 01:00:00 4.8 3 Sudeste 11 Sur 0 947.7 -0.5 63
2019-02-17 00:00:00 5.5 3 Sudeste 12 Sudeste 0 947.8 0.1 67
2019-02-16 23:00:00 6.6 7 Sudeste 16 Sudeste 0 948.1 1.1 52
2019-02-16 22:00:00 7.5 7 Sudeste 17 Sudeste 0 948.2 1.9 60
2019-02-16 21:00:00 8.7 4 Este 14 Este 0 947.7 1.6 57
2019-02-16 20:00:00 10.1 4 Este 14 Este 0 947 0.7 47
2019-02-16 19:00:00 12.1 5 Este 18 Sudeste 0 946.3 -0.4 30
2019-02-16 18:00:00 14.5 7 Este 23 Este 0 946.1 -1 28
2019-02-16 17:00:00 16.3 8 Este 26 Sudeste 0 946.3 -1.6 28
2019-02-16 16:00:00 16.6 8 Sudeste 25 Este 0 946.7 -2 29
2019-02-16 15:00:00 16.8 9 Sudeste 31 Sudeste 0 947.1 -2.1 29
2019-02-16 14:00:00 16.3 9 Sudeste 28 Nordeste 0 947.9 -1.3 32
2019-02-16 13:00:00 14.8 10 Sudeste 24 Sudeste 0 948.7 -0.6 36
2019-02-16 12:00:00 12 6 Este 23 Este 0 949.2 0.3 47
2019-02-16 11:00:00 7.9 6 Este 21 Este 0 949.2 0.9 73
2019-02-16 10:00:00 4.7 5 Este 18 Sudeste 0 949.3 1.3 88
2019-02-16 09:00:00 3.2 3 Sudeste 13 Sudeste 0 948.9 0.9 96
2019-02-16 08:00:00 3.2 5 Sudeste 13 Sudeste 0 948.3 0.5 96
2019-02-16 07:00:00 3.5 0 Calma 12 Este 0 948 -0.1 95
2019-02-16 06:00:00 4.6 3 Este 13 Nordeste 0 948 -0.3 93
2019-02-16 05:00:00 4.9 4 Nordeste 12 Este 0 947.8 -0.7 93
2019-02-16 04:00:00 5.6 3 Este 16 Este 0 948.1 -0.5 92
2019-02-16 03:00:00 6 3 Sudeste 14 Sudeste 0 948.3 -0.2 93
2019-02-16 02:00:00 6.2 0 Calma 19 Este 0 948.5 -0.3 93
2019-02-16 01:00:00 6.4 5 Este 18 Este 0 948.6 0.4 93
2019-02-16 00:00:00 7.1 0 Calma 17 Este 0 948.5 0.5 89
2019-02-15 23:00:00 7.3 5 Sudeste 18 Sudeste 0 948.8 1.1 88
2019-02-15 22:00:00 8.2 4 Sudeste 15 Sudeste 0 948.2 1.1 76
2019-02-15 21:00:00 9.2 3 Este 16 Sudeste 0 948 1.4 65
2019-02-15 20:00:00 11.4 4 Sudeste 15 Sudeste 0 947.7 1.1 55
2019-02-15 19:00:00 13 5 Sudeste 21 Sudeste 0 947.1 0.1 47
2019-02-15 18:00:00 14.7 9 Sudeste 24 Este 0 946.6 -0.7 39
2019-02-15 17:00:00 16.3 8 Sudeste 22 Sudeste 0 946.6 -1.6 39
2019-02-15 16:00:00 16.6 9 Sudeste 27 Sudeste 0 947 -2.4 38
2019-02-15 15:00:00 15.8 6 Este 22 Sudeste 0 947.3 -3 43
2019-02-15 14:00:00 14.4 7 Este 24 Sudeste 0 948.2 -2.2 50
2019-02-15 13:00:00 12 7 Sudeste 19 Este 0 949.4 -0.7 59
2019-02-15 12:00:00 8.7 5 Este 14 Sudeste 0 950.3 0.2 76
2019-02-15 11:00:00 6.6 4 Este 13 Este 0 950.4 0.7 86
2019-02-15 10:00:00 5.9 4 Este 11 Nordeste 0 950.1 0.5 90
2019-02-15 09:00:00 5.5 2 Este 11 Nordeste 0 950.1 0.7 91
2019-02-15 08:00:00 5.6 0 Calma 13 Nordeste 0 949.7 0.3 92
2019-02-15 07:00:00 5.8 0 Calma 11 Este 0 949.6 -0.1 93
2019-02-15 06:00:00 6.1 2 Sudeste 13 Sudeste 0 949.4 -0.7 93
2019-02-15 05:00:00 6.1 2 Sudeste 16 Nordeste 0 949.4 -1 93
2019-02-15 04:00:00 6.2 2 Este 16 Sudeste 0 949.7 -0.9 93
2019-02-15 03:00:00 6.5 3 Sudeste 17 Sudeste 0 950.1 -0.6 91
2019-02-15 02:00:00 6.7 6 Sudeste 16 Sudoeste 0 950.4 -0.5 91
2019-02-15 01:00:00 6.1 0 Calma 11 Sudeste 0 950.6 -0.3 91
2019-02-15 00:00:00 5 0 Calma 11 Este 0 950.7 0.3 89
2019-02-14 23:00:00 5.6 2 Este 11 Sur 0 950.9 0.5 85
2019-02-14 22:00:00 6.4 0 Calma 13 Sudeste 0 950.9 0.8 78
2019-02-14 21:00:00 8.6 5 Sudeste 19 Sur 0 950.4 0.3 70
2019-02-14 20:00:00 9.8 5 Sudeste 19 Sudeste 0 950.4 0.4 63
2019-02-14 19:00:00 11 8 Sudeste 16 Sudeste 0 950.1 -0.1 56
2019-02-14 18:00:00 12.5 8 Sudeste 22 Sudeste 0 950.1 -0.8 48
2019-02-14 17:00:00 14 8 Sudeste 28 Sudeste 0 950 -1.6 43
2019-02-14 16:00:00 14.7 10 Sudeste 26 Sudeste 0 950.2 -2.6 40
2019-02-14 15:00:00 14.5 12 Sudeste 27 Sudeste 0 950.9 -2.8 41
2019-02-14 14:00:00 13.2 8 Sudeste 24 Sudeste 0 951.6 -2.3 44
2019-02-14 13:00:00 11.5 10 Sudeste 26 Sudeste 0 952.8 -1 50
2019-02-14 12:00:00 9.8 10 Sudeste 23 Sudeste 0 953.7 0 58
2019-02-14 11:00:00 6.7 7 Este 27 Sudeste 0 953.9 0.8 70
2019-02-14 10:00:00 5.7 7 Este 26 Sudeste 0 953.8 0.9 74
2019-02-14 09:00:00 5.1 7 Este 21 Este 0 953.7 0.8 78
2019-02-14 08:00:00 4.8 4 Este 16 Nordeste 0 953.1 0.6 82
2019-02-14 07:00:00 4.4 3 Este 13 Este 0 952.9 0.2 86
2019-02-14 06:00:00 3.8 0 Calma 12 Este 0 952.9 0.3 90
2019-02-14 05:00:00 3.7 4 Este 13 Este 0 952.5 -0.1 89
2019-02-14 04:00:00 4.3 0 Calma 18 Sudeste 0 952.7 0.3 86
2019-02-14 03:00:00 3.9 4 Este 14 Este 0 952.6 0.2 84
2019-02-14 02:00:00 2.4 0 Calma 4 Este 0 952.6 0.4 86
2019-02-14 01:00:00 3.6 0 Calma 4 Nordeste 0 952.4 0.4 85
2019-02-14 00:00:00 4.2 0 Calma 7 Nordeste 0 952.4 1 80
2019-02-13 23:00:00 6 0 Calma 12 Este 0 952.2 1.2 73
2019-02-13 22:00:00 7.5 4 Sudeste 15 Sudeste 0 952 1.6 65
2019-02-13 21:00:00 8.4 7 Sudeste 15 Sudeste 0 951.4 1.3 57
2019-02-13 20:00:00 10.3 5 Sudeste 18 Sur 0 951 0.9 46
2019-02-13 19:00:00 12.1 4 Sudeste 17 Sudeste 0 950.4 0.2 35
2019-02-13 18:00:00 14.1 9 Sudeste 21 Sudeste 0 950.1 -0.2 24
2019-02-13 17:00:00 15.8 6 Sudeste 24 Sudeste 0 950.1 -0.5 22
2019-02-13 16:00:00 16.2 6 Sudeste 23 Sudeste 0 950.2 -1.2 22
2019-02-13 15:00:00 16.2 6 Sudeste 25 Sudeste 0 950.3 -1.6 20
2019-02-13 14:00:00 15.5 8 Sudeste 24 Sudeste 0 950.6 -1 23
2019-02-13 13:00:00 14.5 6 Sudeste 19 Sudeste 0 951.4 -0.3 30
2019-02-13 12:00:00 11.7 6 Este 16 Este 0 951.9 0.7 53
2019-02-13 11:00:00 7 4 Este 17 Sudeste 0 951.6 0.7 85
2019-02-13 10:00:00 3.6 3 Este 15 Sudeste 0 951.7 1 93
2019-02-13 09:00:00 3.4 6 Sudeste 15 Sudeste 0 951.2 0.5 98
2019-02-13 08:00:00 0.8 2 Este 13 Sudeste 0 950.9 0.3 98
2019-02-13 07:00:00 3.3 3 Sudeste 12 Sudeste 0 950.7 -0.2 98
2019-02-13 06:00:00 3.3 3 Este 12 Sudeste 0 950.7 -0.4 95
2019-02-13 05:00:00 4.8 6 Sudeste 17 Este 0 950.6 -0.8 95
2019-02-13 04:00:00 5.5 6 Sudeste 19 Sudeste 0 950.9 -0.6 95
2019-02-13 03:00:00 5.6 6 Sudeste 17 Sur 0 951.1 -0.7 95
2019-02-13 02:00:00 5.3 4 Sudeste 15 Sudeste 0 951.4 -0.7 94
2019-02-13 01:00:00 5.6 5 Sudeste 16 Sudeste 0 951.5 -0.6 90
2019-02-13 00:00:00 6.1 3 Sudeste 19 Sudeste 0 951.8 -0.3 85
2019-02-12 23:00:00 6.9 6 Sudeste 18 Sudeste 0 952.1 0.4 77
2019-02-12 22:00:00 7.7 3 Sudeste 15 Sudeste 0 952.1 0.8 66
2019-02-12 21:00:00 8.7 4 Sudeste 13 Sudeste 0 952.1 1.1 59
2019-02-12 20:00:00 9.7 5 Sudeste 16 Sudeste 0 951.7 0.8 54
2019-02-12 19:00:00 10.8 5 Sudeste 16 Sur 0 951.3 0.1 50
2019-02-12 18:00:00 12.3 6 Sudeste 22 Sudeste 0 951 0 46
2019-02-12 17:00:00 13.9 9 Sudeste 21 Sudeste 0 950.9 -0.5 42
2019-02-12 16:00:00 15 9 Sudeste 22 Sudeste 0 951.2 -0.8 40
2019-02-12 15:00:00 14.9 3 Sudeste 19 Sudeste 0 951 -1.4 43
2019-02-12 14:00:00 14.5 6 Sudeste 20 Sudeste 0 951.4 -0.9 45
2019-02-12 13:00:00 13.7 4 Sudeste 17 Sur 0 952 0 49
2019-02-12 12:00:00 11.9 8 Sudeste 19 Este 0 952.4 0.7 57
2019-02-12 11:00:00 7.3 3 Este 13 Este 0 952.3 1.4 79
2019-02-12 10:00:00 4.3 5 Este 13 Este 0 952 1.5 85
2019-02-12 09:00:00 2.1 5 Este 12 Sudeste 0 951.7 1 86
2019-02-12 08:00:00 3.2 0 Calma 6 Este 0 950.9 0.6 82
2019-02-12 07:00:00 3.7 0 Calma 7 Este 0 950.5 0 83
2019-02-12 06:00:00 3.3 0 Calma 8 Nordeste 0 950.7 0 83
2019-02-12 05:00:00 3.5 0 Calma 8 Este 0 950.3 -0.1 86
2019-02-12 04:00:00 4.3 0 Calma 5 Nordeste 0 950.5 0 89
2019-02-12 03:00:00 4.8 0 Calma 8 Este 0 950.7 0.3 89
2019-02-12 02:00:00 5.2 0 Calma 6 Este 0 950.4 0.2 89
2019-02-12 01:00:00 5.1 0 Calma 9 Este 0 950.5 1.1 89
2019-02-12 00:00:00 4.9 0 Calma 10 Este 0 950.4 1.8 84
2019-02-11 23:00:00 5.9 3 Este 12 Este 0 950.2 2.1 80
2019-02-11 22:00:00 7.9 4 Nordeste 10 Este 0 949.4 1.9 64
2019-02-11 21:00:00 9.8 0 Calma 12 Norte 0 948.6 1.5 41
2019-02-11 20:00:00 11.4 5 Oeste 11 Oeste 0 948.1 1.3 39
2019-02-11 19:00:00 13.1 3 Oeste 14 Oeste 0 947.5 0.8 37
2019-02-11 18:00:00 14.4 6 Oeste 18 Oeste 0 947.1 0.2 35
2019-02-11 17:00:00 15.5 7 Oeste 21 Oeste 0 946.8 -0.5 35
2019-02-11 16:00:00 16.1 8 Oeste 26 Sudoeste 0 946.7 -1.2 38
2019-02-11 15:00:00 15.8 9 Oeste 25 Oeste 0 946.9 -1.2 40
2019-02-11 14:00:00 15 10 Oeste 26 Oeste 0 947.3 -0.9 43
2019-02-11 13:00:00 14.6 6 Oeste 19 Oeste 0 947.9 0 46
2019-02-11 12:00:00 13 3 Noroeste 15 Oeste 0 948.1 0.7 63
2019-02-11 11:00:00 10.7 4 Noroeste 15 Oeste 0 948.2 1.7 84
2019-02-11 10:00:00 8.9 3 Oeste 15 Oeste 0 947.9 1.8 96
2019-02-11 09:00:00 8.5 0 Calma 11 Oeste 0 947.4 1.9 96
2019-02-11 08:00:00 8.8 5 Oeste 14 Oeste 0 946.5 1 94
2019-02-11 07:00:00 8.4 0 Calma 19 Oeste 0 946.1 0.3 92
2019-02-11 06:00:00 8.8 6 Oeste 17 Oeste 0 945.5 -0.2 91
2019-02-11 05:00:00 9.1 8 Oeste 24 Oeste 0 945.5 -0.2 90
2019-02-11 04:00:00 9.2 13 Oeste 27 Oeste 0 945.8 0 90
2019-02-11 03:00:00 8.6 10 Oeste 24 Oeste 0 945.7 0.1 90
2019-02-11 02:00:00 8.5 4 Oeste 15 Sudoeste 0 945.7 0.2 89
2019-02-11 01:00:00 8.9 6 Oeste 30 Oeste 0 945.8 0.2 86
2019-02-11 00:00:00 9.5 14 Oeste 33 Oeste 0 945.6 -0.1 81
2019-02-10 23:00:00 9.4 11 Oeste 25 Oeste 0 945.5 0 80
2019-02-10 22:00:00 9.4 8 Oeste 23 Oeste 0 945.6 0.9 80
2019-02-10 21:00:00 9.6 7 Oeste 22 Oeste 0 945.7 1 77
2019-02-10 20:00:00 9.8 6 Oeste 23 Oeste 0 945.5 1.2 75
2019-02-10 19:00:00 11.4 10 Oeste 37 Oeste 0 944.7 0.5 63
2019-02-10 18:00:00 12.1 9 Oeste 35 Oeste 0 944.7 0.3 58
2019-02-10 17:00:00 13.1 13 Oeste 37 Oeste 0 944.3 -0.6 55
2019-02-10 16:00:00 13.1 14 Oeste 37 Oeste 0 944.2 -1.2 53
2019-02-10 15:00:00 12.5 10 Oeste 38 Oeste 0 944.4 -1.3 56
2019-02-10 14:00:00 12.3 16 Oeste 40 Oeste 0 944.9 -0.8 58
2019-02-10 13:00:00 11.1 14 Oeste 33 Oeste 0 945.4 -0.1 65
2019-02-10 12:00:00 9.9 10 Oeste 26 Sudoeste 0 945.7 0.8 73
2019-02-10 11:00:00 8.6 9 Oeste 25 Sudoeste 0 945.7 1.8 79
2019-02-10 10:00:00 7.7 9 Oeste 26 Sudoeste 0 945.5 1.8 82
2019-02-10 09:00:00 6 6 Oeste 27 Oeste 0 944.9 1.8 86
2019-02-10 08:00:00 4.5 6 Oeste 16 Oeste 0 943.9 1 86
2019-02-10 07:00:00 4.5 0 Calma 7 Sudoeste 0 943.7 0.7 83
2019-02-10 06:00:00 5.4 0 Calma 12 Sudoeste 0 943.1 -0.5 80
2019-02-10 05:00:00 6.4 3 Sudoeste 21 Oeste 0 942.9 -1.1 77
2019-02-10 04:00:00 6.6 5 Oeste 17 Sudoeste 0 943 -1 72
2019-02-10 03:00:00 7.3 6 Oeste 19 Oeste 0 943.6 -0.6 67
2019-02-10 02:00:00 7.4 6 Oeste 15 Sudoeste 0 944 -0.2 63
2019-02-10 01:00:00 7.3 3 Oeste 18 Sudoeste 0 944 0.1 60
2019-02-10 00:00:00 6.1 0 Calma 10 Oeste 0 944.2 0.7 60
2019-02-09 23:00:00 7.5 0 Calma 6 Sudoeste 0 944.2 1 60
2019-02-09 22:00:00 9.8 0 Calma 7 Oeste 0 943.9 1.1 58
2019-02-09 21:00:00 9.4 0 Calma 3 Sudoeste 0 943.5 1 61
2019-02-09 20:00:00 10.9 0 Calma -- -- 0 943.2 0.5 54
2019-02-09 19:00:00 13.1 0 Calma 5 Noroeste 0 942.8 -0.3 47
2019-02-09 18:00:00 16.1 2 Noroeste 9 Oeste 0 942.5 -0.9 38
2019-02-09 17:00:00 17.8 3 Oeste 12 Sudoeste 0 942.7 -1.3 36
2019-02-09 16:00:00 17.6 6 Oeste 14 Noroeste 0 943.1 -2 37
2019-02-09 15:00:00 17 4 Oeste 13 Noroeste 0 943.4 -2.2 39
2019-02-09 14:00:00 15.5 5 Oeste 14 Oeste 0 944 -1.6 44
2019-02-09 13:00:00 14.7 0 Calma 8 Este 0 945.1 -0.4 49
2019-02-09 12:00:00 12 0 Calma 6 Este 0 945.6 0.6 56
2019-02-09 11:00:00 6.9 0 Calma 5 Sudoeste 0 945.6 1.1 73
2019-02-09 10:00:00 3.9 0 Calma 6 Sudoeste 0 945.5 1.2 86
2019-02-09 09:00:00 1.1 0 Calma 3 Norte 0 945 0.7 91
2019-02-09 08:00:00 1.8 0 Calma -- -- 0 944.5 0.5 90
2019-02-09 07:00:00 2 0 Calma 6 Noroeste 0 944.3 0.5 86
2019-02-09 06:00:00 2.9 0 Calma 8 Oeste 0 944.3 0.2 81
2019-02-09 05:00:00 4 0 Calma 8 Sudoeste 0 944 -0.1 77
2019-02-09 04:00:00 4.6 0 Calma 9 Sur 0 943.8 -0.4 75
2019-02-09 03:00:00 5.3 3 Sudoeste 11 Oeste 0 944.1 -0.2 72
2019-02-09 02:00:00 5.8 2 Oeste 9 Sudoeste 0 944.1 -0.1 70
2019-02-09 01:00:00 6.3 0 Calma 15 Sur 0 944.2 0.3 63
2019-02-09 00:00:00 7.1 3 Sudoeste 13 Sudoeste 0 944.3 1.1 56
2019-02-08 23:00:00 8.4 4 Sudoeste 11 Sudoeste 0 944.2 1.5 50
2019-02-08 22:00:00 10 3 Oeste 8 Sudoeste 0 943.9 1.4 48
2019-02-08 21:00:00 9.5 0 Calma 0 Calma 0 943.2 0.9 49
2019-02-08 20:00:00 11.5 0 Calma 7 Oeste 0 942.7 0.4 43
2019-02-08 19:00:00 14 0 Calma 8 Norte 0 942.5 0 39
2019-02-08 18:00:00 17.2 0 Calma 11 Oeste 0 942.3 -0.6 35
2019-02-08 17:00:00 18.9 4 Oeste 15 Oeste 0 942.3 -1.1 31
2019-02-08 16:00:00 19.4 3 Noroeste 13 Oeste 0 942.5 -1.7 30
2019-02-08 15:00:00 18.7 3 Noroeste 13 Norte 0 942.9 -2 32
2019-02-08 14:00:00 17.4 3 Noroeste 12 Oeste 0 943.4 -1.8 33
2019-02-08 13:00:00 14.4 3 Oeste 7 Oeste 0 944.2 -1.1 46
2019-02-08 12:00:00 10.9 0 Calma 5 Sur 0 944.9 -0.1 54
2019-02-08 11:00:00 6.2 0 Calma 0 Calma 0 945.2 0.5 72
2019-02-08 10:00:00 2.7 0 Calma 3 Sur 0 945.3 0.7 86
2019-02-08 09:00:00 1.1 0 Calma 0 Calma 0 945 0.4 88
2019-02-08 08:00:00 1.3 0 Calma 7 Sudoeste 0 944.7 0.1 89
2019-02-08 07:00:00 1.4 0 Calma -- -- 0 944.6 -0.1 88
2019-02-08 06:00:00 1.3 0 Calma -- -- 0 944.6 -0.3 84
2019-02-08 05:00:00 3 0 Calma 6 Sudoeste 0 944.6 -0.6 83
2019-02-08 04:00:00 3.7 0 Calma 4 Sudoeste 0 944.7 -0.7 78
2019-02-08 03:00:00 4.7 0 Calma 8 Sudoeste 0 944.9 -0.5 80
2019-02-08 02:00:00 4 0 Calma -- -- 0 945.2 0 79
2019-02-08 01:00:00 5.5 0 Calma 6 Sudoeste 0 945.4 0.7 73
2019-02-08 00:00:00 7 0 Calma 8 Sudoeste 0 945.4 1.2 69
2019-02-07 23:00:00 7.5 0 Calma 9 Sudoeste 0 945.2 1.4 66
2019-02-07 22:00:00 8.7 2 Sudoeste 13 Oeste 0 944.7 1.2 57
2019-02-07 21:00:00 11.2 6 Oeste 17 Oeste 0 944.2 0.8 50
2019-02-07 20:00:00 11.9 7 Oeste 18 Oeste 0 943.8 0.6 47
2019-02-07 19:00:00 13 2 Oeste 13 Oeste 0 943.5 0.4 44
2019-02-07 18:00:00 15.2 3 Noroeste 18 Oeste 0 943.4 0 40
2019-02-07 17:00:00 16.9 6 Noroeste 21 Oeste 0 943.2 -0.7 36
2019-02-07 16:00:00 17.4 8 Oeste 22 Oeste 0 943.1 -1.6 36
2019-02-07 15:00:00 17.1 8 Noroeste 21 Oeste 0 943.4 -2 40
2019-02-07 14:00:00 16.8 5 Oeste 20 Oeste 0 943.9 -1.6 45
2019-02-07 13:00:00 15.1 5 Oeste 17 Oeste 0 944.7 -0.7 51
2019-02-07 12:00:00 12.2 4 Oeste 13 Oeste 0 945.4 0.5 60
2019-02-07 11:00:00 7.2 0 Calma 9 Oeste 0 945.5 0.9 79
2019-02-07 10:00:00 5.6 0 Calma 8 Oeste 0 945.4 1.1 83
2019-02-07 09:00:00 3.7 0 Calma 7 Oeste 0 944.9 0.6 85
2019-02-07 08:00:00 4.1 0 Calma 7 Sudoeste 0 944.6 0.1 81
2019-02-07 07:00:00 4.3 0 Calma 7 Sudoeste 0 944.3 -0.5 83
2019-02-07 06:00:00 2.6 0 Calma -- -- 0 944.3 -0.5 87
2019-02-07 05:00:00 4.1 0 Calma 5 Oeste 0 944.5 -0.3 86
2019-02-07 04:00:00 4.1 0 Calma 4 Sudoeste 0 944.8 -0.2 86
2019-02-07 03:00:00 3.9 0 Calma -- -- 0 944.8 -0.1 80
2019-02-07 02:00:00 5.6 0 Calma 5 Sur 0 944.8 -0.3 73
2019-02-07 01:00:00 7 0 Calma 10 Sudoeste 0 945 -0.1 70
2019-02-07 00:00:00 7.7 0 Calma 10 Sur 0 944.9 0 68
2019-02-06 23:00:00 8.6 0 Calma 8 Sur 0 945.1 0.3 63
2019-02-06 22:00:00 10 0 Calma 10 Sudoeste 0 945.1 0.5 57
2019-02-06 21:00:00 10.9 4 Sudoeste 10 Sudoeste 0 944.9 0.6 52
2019-02-06 20:00:00 11.7 0 Calma 5 Oeste 0 944.8 0.5 48
2019-02-06 19:00:00 13.6 0 Calma 7 Noroeste 0 944.6 0.1 43
2019-02-06 18:00:00 16.4 3 Noroeste 14 Noroeste 0 944.3 -0.8 37
2019-02-06 17:00:00 18.3 5 Oeste 16 Oeste 0 944.3 -1.7 36
2019-02-06 16:00:00 18.9 5 Oeste 16 Oeste 0 944.5 -2.6 36
2019-02-06 15:00:00 18.3 5 Oeste 15 Oeste 0 945.1 -2.9 38
2019-02-06 14:00:00 16.4 5 Oeste 11 Sudoeste 0 946 -2.2 45
2019-02-06 13:00:00 13.6 4 Oeste 11 Sudoeste 0 947.1 -1.1 50
2019-02-06 12:00:00 11.3 3 Oeste 9 Oeste 0 948 -0.1 57
2019-02-06 11:00:00 6.9 0 Calma 5 Oeste 0 948.2 0.3 75
2019-02-06 10:00:00 4.3 0 Calma 0 Calma 0 948.2 0.3 86
2019-02-06 09:00:00 1.3 0 Calma 4 Sur 0 948.1 0.2 94
2019-02-06 08:00:00 0.9 0 Calma -- -- 0 947.9 0.1 93
2019-02-06 07:00:00 1.3 0 Calma -- -- 0 947.9 -0.1 90
2019-02-06 06:00:00 1.8 0 Calma -- -- 0 947.9 -0.4 88
2019-02-06 05:00:00 3.1 0 Calma 5 Oeste 0 947.8 -0.6 87
2019-02-06 04:00:00 3.2 0 Calma -- -- 0 948 -0.7 83
2019-02-06 03:00:00 4.4 0 Calma 6 Sudoeste 0 948.3 -0.2 79
2019-02-06 02:00:00 5.3 0 Calma 5 Sudoeste 0 948.4 0 76
2019-02-06 01:00:00 6.1 0 Calma 8 Sudoeste 0 948.7 0.4 73
2019-02-06 00:00:00 6.6 2 Sudoeste 9 Sudoeste 0 948.5 0.4 71
2019-02-05 23:00:00 7.1 4 Sudoeste 14 Oeste 0 948.4 0.6 69
2019-02-05 22:00:00 7.8 6 Oeste 19 Oeste 0 948.3 1 64
2019-02-05 21:00:00 8.9 7 Oeste 19 Oeste 0 948.1 1.1 60
2019-02-05 20:00:00 10.5 10 Oeste 23 Oeste 0 947.8 0.5 53
2019-02-05 19:00:00 12.1 9 Oeste 24 Oeste 0 947.3 0 48
2019-02-05 18:00:00 14.1 9 Oeste 23 Oeste 0 947 -0.9 43
2019-02-05 17:00:00 15.7 9 Oeste 22 Oeste 0 947.3 -1.2 40
2019-02-05 16:00:00 16.2 7 Oeste 20 Noroeste 0 947.3 -2 39
2019-02-05 15:00:00 16.4 8 Oeste 18 Oeste 0 947.9 -2.1 39
2019-02-05 14:00:00 15 6 Oeste 17 Oeste 0 948.5 -1.5 42
2019-02-05 13:00:00 12.7 5 Oeste 12 Oeste 0 949.3 -0.6 45
2019-02-05 12:00:00 9.8 2 Oeste 13 Oeste 0 950 0 50
2019-02-05 11:00:00 5.8 5 Oeste 10 Oeste 0 950 0.8 61
2019-02-05 10:00:00 2.9 0 Calma 8 Sudoeste 0 949.9 1 70
2019-02-05 09:00:00 -0.6 0 Calma -- -- 0 950 1.1 80
2019-02-05 08:00:00 -0.2 0 Calma 0 Calma 0 949.2 0.5 80
2019-02-05 07:00:00 -0.2 0 Calma 2 Sudoeste 0 948.9 0.1 78
2019-02-05 06:00:00 0.5 0 Calma 3 Sur 0 948.9 -0.2 75
2019-02-05 05:00:00 0.5 0 Calma -- -- 0 948.7 -0.4 73
2019-02-05 04:00:00 1.4 0 Calma 6 Oeste 0 948.8 -0.8 68
2019-02-05 03:00:00 2.2 0 Calma 6 Sur 0 949.1 -0.4 64
2019-02-05 02:00:00 2.9 0 Calma 8 Noroeste 0 949.1 -0.1 62
2019-02-05 01:00:00 3.8 0 Calma 9 Oeste 0 949.6 0.6 58
2019-02-05 00:00:00 4.3 0 Calma 6 Sur 0 949.5 0.8 54
2019-02-04 23:00:00 5.1 0 Calma 9 Sur 0 949.2 0.8 51
2019-02-04 22:00:00 5.6 0 Calma 16 Oeste 0 949 -- 51
2019-02-04 21:00:00 6 4 Oeste 11 Oeste 0 948.7 1.2 50
2019-02-04 20:00:00 6.8 3 Oeste 10 Oeste 0 948.4 1.2 46
2019-02-04 19:00:00 -- 5 Oeste -- -- -- -- -- --
2019-02-04 18:00:00 9.6 4 Noroeste 22 Oeste 0 947.5 -0.2 38
2019-02-04 17:00:00 11 7 Oeste 26 Oeste 0 947.2 -0.8 35
2019-02-04 16:00:00 12.3 6 Oeste 26 Oeste 0 947.3 -1.5 33
2019-02-04 15:00:00 11.6 10 Oeste 25 Oeste 0 947.7 -1.9 36
2019-02-04 14:00:00 8.9 7 Oeste 27 Oeste 0 948 -1.7 41
2019-02-04 13:00:00 8.9 10 Oeste 23 Oeste 0 948.8 -0.9 41
2019-02-04 12:00:00 6.9 10 Oeste 31 Oeste 0 949.6 0.9 50
2019-02-04 11:00:00 3.6 9 Oeste 21 Sudoeste 0 949.7 1.2 64
2019-02-04 10:00:00 0.8 5 Oeste 18 Oeste 0 949.7 1.4 75
2019-02-04 09:00:00 -0.7 2 Oeste 14 Oeste 0 948.7 0.9 79
2019-02-04 08:00:00 -1.2 7 Oeste 19 Oeste 0 948.5 0.9 80
2019-02-04 07:00:00 -1 7 Oeste 16 Noroeste 0 948.3 -0.3 81
2019-02-04 06:00:00 -0.8 0 Calma 8 Oeste 0 947.8 -0.6 82
2019-02-04 05:00:00 -1 0 Calma 17 Oeste 0 947.6 -0.2 80
2019-02-04 04:00:00 -0.5 4 Oeste 21 Oeste 0 948.6 0.5 80
2019-02-04 03:00:00 -0.8 4 Noroeste 19 Oeste 0 948.4 0.6 80
2019-02-04 02:00:00 -0.3 4 Oeste 21 Oeste 0 947.8 0.2 76
2019-02-04 01:00:00 0.3 2 Oeste 18 Oeste 0 948.1 1.1 71
2019-02-04 00:00:00 1 6 Oeste 21 Oeste 0 947.8 1.5 66
2019-02-03 23:00:00 1.2 6 Oeste 22 Oeste 0 947.6 2 63
2019-02-03 22:00:00 2.3 5 Noroeste 22 Oeste 0 947 2.1 57
2019-02-03 21:00:00 3 8 Oeste 26 Oeste 0 946.3 2 52
2019-02-03 20:00:00 4.2 5 Noroeste 23 Sudoeste 0 945.6 1.6 47
2019-02-03 19:00:00 5.3 7 Oeste 26 Oeste 0 944.9 1.2 43
2019-02-03 18:00:00 6.8 5 Noroeste 28 Oeste 0 944.3 0.6 39
2019-02-03 17:00:00 8.2 8 Noroeste 32 Noroeste 0 944 0 36
2019-02-03 16:00:00 7.5 9 Noroeste 41 Oeste 0 943.7 -0.5 36
2019-02-03 15:00:00 8.1 11 Noroeste 39 Noroeste 0 943.7 -0.9 36
2019-02-03 14:00:00 7.4 9 Noroeste 41 Noroeste 0 944 -0.5 38
2019-02-03 13:00:00 6.7 9 Noroeste 42 Sudoeste 0 944.2 0.2 41
2019-02-03 12:00:00 5.8 9 Noroeste 40 Oeste 0 944.6 2 47
2019-02-03 11:00:00 2.9 10 Oeste 35 Oeste 0 944.5 2.6 58
2019-02-03 10:00:00 1.7 14 Oeste 44 Noroeste 0 944 3.1 64
2019-02-03 09:00:00 0.4 15 Oeste 36 Oeste 0 942.6 2 70
2019-02-03 08:00:00 -0.3 9 Oeste 36 Oeste 0 941.9 1.7 75
2019-02-03 07:00:00 0 8 Oeste 32 Oeste 0 940.9 1.4 75
2019-02-03 06:00:00 0.1 8 Oeste 30 Oeste 0 940.6 1.2 76
2019-02-03 05:00:00 0.3 9 Oeste 34 Oeste 0 940.2 1 76
2019-02-03 04:00:00 0.5 9 Oeste 31 Oeste 0 939.5 0.8 76
2019-02-03 03:00:00 0.4 8 Oeste 28 Oeste 0 939.4 0.9 76
2019-02-03 02:00:00 0.7 11 Oeste 34 Oeste 0 939.2 1 75
2019-02-03 01:00:00 0.7 8 Oeste 27 Noroeste 0 938.7 1.3 74
2019-02-03 00:00:00 0.7 6 Oeste 22 Oeste 0 938.5 1.8 76
2019-02-02 23:00:00 1.1 7 Oeste 23 Oeste 0 938.2 2.4 74
2019-02-02 22:00:00 2.1 10 Oeste 31 Oeste 0 937.4 2.9 63
2019-02-02 21:00:00 2.9 9 Oeste 30 Oeste 0 936.7 3.3 54
2019-02-02 20:00:00 3.7 9 Oeste 24 Oeste 0 935.8 3.1 53
2019-02-02 19:00:00 4.8 9 Oeste 38 Oeste 0 934.5 2.8 48
2019-02-02 18:00:00 6.7 8 Noroeste 41 Oeste 0 933.4 2.3 39
2019-02-02 17:00:00 8.1 14 Noroeste 50 Oeste 0 932.7 2 37
2019-02-02 16:00:00 8 9 Noroeste 45 Sudoeste 0 931.7 1.9 39
2019-02-02 15:00:00 7.5 12 Noroeste 48 Oeste 0 931.1 1 42
2019-02-02 14:00:00 7.1 13 Oeste 51 Oeste 0 930.7 1 48
2019-02-02 13:00:00 7.5 20 Oeste 51 Oeste 0 929.8 1 51
2019-02-02 12:00:00 6.5 18 Oeste 48 Oeste 0 930.1 2.5 58
2019-02-02 11:00:00 4.7 17 Oeste 41 Oeste 0 929.7 3.1 66
2019-02-02 10:00:00 4.1 14 Oeste 49 Oeste 0 928.8 3.7 74
2019-02-02 09:00:00 3.5 14 Oeste 31 Oeste 0 927.6 3.1 79
2019-02-02 08:00:00 3.4 10 Oeste 24 Oeste 0 926.6 2.7 80
2019-02-02 07:00:00 3.4 8 Oeste 24 Oeste 0 925.1 1.2 80
2019-02-02 06:00:00 3.3 8 Oeste 30 Oeste 0 924.5 0.8 80
2019-02-02 05:00:00 3.5 11 Oeste 37 Oeste 0 923.9 1 79
2019-02-02 04:00:00 3.8 11 Oeste 43 Oeste 0 923.9 1.5 78
2019-02-02 03:00:00 4 14 Oeste 38 Oeste 0 923.7 2.4 78
2019-02-02 02:00:00 4.4 15 Oeste 41 Oeste 0 922.9 1.6 77
2019-02-02 01:00:00 4.8 19 Oeste 44 Oeste 0 922.4 1.5 77
2019-02-02 00:00:00 4.9 14 Oeste 43 Oeste 0.1 921.3 0.9 78
2019-02-01 23:00:00 4.8 13 Oeste 41 Oeste 0 921.3 1.9 81
2019-02-01 22:00:00 4.7 9 Oeste 36 Noroeste 0 920.9 2 80
2019-02-01 21:00:00 5 15 Oeste 51 Oeste 0 920.4 2.3 78
2019-02-01 20:00:00 4.9 14 Oeste 51 Oeste 0.2 919.4 0.8 86
2019-02-01 19:00:00 5.7 18 Oeste 52 Oeste 1.2 918.9 -0.2 86
2019-02-01 18:00:00 9.2 14 Oeste 45 Oeste 0 918.1 -0.9 54
2019-02-01 17:00:00 10.3 19 Oeste 50 Oeste 0 918.6 -0.6 48
2019-02-01 16:00:00 10.3 18 Oeste 50 Oeste 0 919.1 -0.9 49
2019-02-01 15:00:00 10.3 25 Oeste 62 Oeste 0 919 -1 47
2019-02-01 14:00:00 10.7 30 Oeste 71 Oeste 0 919.2 -0.3 45
2019-02-01 13:00:00 10.5 26 Oeste 60 Oeste 0.1 920 0.6 56
2019-02-01 12:00:00 10.3 27 Oeste 56 Oeste 0 920 0.6 61
2019-02-01 11:00:00 9.4 18 Oeste 42 Oeste 0 919.5 1.1 76
2019-02-01 10:00:00 8.7 13 Oeste 39 Oeste 0.1 919.4 1.2 87
2019-02-01 09:00:00 8.7 16 Oeste 46 Oeste 1.1 919.4 0.8 93
2019-02-01 08:00:00 10 8 Oeste 42 Sudoeste 0.1 918.4 -1.2 84
2019-02-01 07:00:00 11.1 15 Sudoeste 39 Sudoeste 0 918.2 -2.6 78
2019-02-01 06:00:00 11 13 Oeste 39 Sudoeste 0 918.6 -2.8 80
2019-02-01 05:00:00 11.3 19 Oeste 54 Sudoeste 0 919.6 -2.7 75
2019-02-01 04:00:00 11.4 11 Sudoeste 38 Sudoeste 0 920.8 -2.6 78
2019-02-01 03:00:00 11.2 15 Sudoeste 40 Sudoeste 0 921.4 -2.5 78
2019-02-01 02:00:00 11.2 17 Sudoeste 48 Sudoeste 0 922.3 -2.7 76
2019-02-01 01:00:00 11 15 Sudoeste 44 Oeste 0 923.4 -1.7 79
2019-02-01 00:00:00 10.9 11 Sudoeste 39 Oeste 0 923.9 -2 79
2019-01-31 23:00:00 10.8 9 Oeste 42 Oeste 0 925 -1 80
2019-01-31 22:00:00 10.9 12 Sudoeste 38 Oeste 0 925.1 -1.2 80
2019-01-31 21:00:00 10.9 10 Sudoeste 27 Oeste 0 925.9 -0.7 80
2019-01-31 20:00:00 10.6 11 Oeste 36 Sudoeste 0 926 -1 80
2019-01-31 19:00:00 11.2 12 Oeste 43 Oeste 0 926.3 -0.4 79
2019-01-31 18:00:00 12.1 13 Oeste 41 Oeste 0 926.6 -0.4 73
2019-01-31 17:00:00 12.9 17 Oeste 48 Oeste 0 927 -0.2 66
2019-01-31 16:00:00 13.9 20 Oeste 60 Oeste 0 926.7 -1.1 60
2019-01-31 15:00:00 13 24 Oeste 58 Oeste 0 927 -1.3 66
2019-01-31 14:00:00 13.7 23 Oeste 55 Oeste 0 927.2 -1.1 60
2019-01-31 13:00:00 13.4 24 Oeste 58 Oeste 0 927.8 0.6 58
2019-01-31 12:00:00 12.5 22 Oeste 55 Oeste 0 928.3 1.4 67
2019-01-31 11:00:00 12.1 24 Oeste 53 Oeste 0 928.3 1.6 72
2019-01-31 10:00:00 11.4 18 Oeste 37 Oeste 0 927.2 0.5 80
2019-01-31 09:00:00 10.3 12 Oeste 33 Oeste 0 926.9 0 85
2019-01-31 08:00:00 9.4 13 Oeste 37 Oeste 0 926.7 -0.4 89
2019-01-31 07:00:00 9.2 19 Oeste 42 Noroeste 0 926.7 -1.1 88
2019-01-31 06:00:00 9.1 18 Oeste 44 Oeste 0 926.9 -1.5 86
2019-01-31 05:00:00 8.8 11 Oeste 37 Oeste 0 927.1 -1.9 85
2019-01-31 04:00:00 8.3 11 Oeste 35 Sudoeste 0 927.8 -2.3 84
2019-01-31 03:00:00 8.3 10 Oeste 32 Sudoeste 0 928.4 -1.8 83
2019-01-31 02:00:00 8.5 13 Oeste 37 Sudoeste 0 929 -2.1 82
2019-01-31 01:00:00 8.2 9 Oeste 27 Oeste 0.1 930.1 -1.8 88
2019-01-31 00:00:00 7.5 6 Sudoeste 22 Sudoeste 0 930.2 -2.1 87
2019-01-30 23:00:00 6.9 8 Oeste 22 Oeste 0 931.1 -1.5 82
2019-01-30 22:00:00 7 6 Oeste 30 Oeste 0 931.9 -0.4 75
2019-01-30 21:00:00 7.5 12 Oeste 41 Oeste 0 932.3 0 68
2019-01-30 20:00:00 8.4 15 Oeste 37 Oeste 0 932.6 0.2 51
2019-01-30 19:00:00 8.3 15 Oeste 32 Oeste 0 932.3 -0.4 48
2019-01-30 18:00:00 9 14 Oeste 35 Oeste 0 932.3 -0.7 46
2019-01-30 17:00:00 10.3 13 Oeste 36 Oeste 0 932.4 -1.5 45
2019-01-30 16:00:00 10.2 15 Oeste 31 Oeste 0 932.7 -2.1 44
2019-01-30 15:00:00 10.4 12 Oeste 33 Oeste 0 933 -2.3 49
2019-01-30 14:00:00 10.3 12 Oeste 34 Oeste 0 933.9 -1 55
2019-01-30 13:00:00 8.5 13 Oeste 29 Oeste 0 934.8 0.2 61
2019-01-30 12:00:00 8.9 10 Oeste 32 Noroeste 0 935.3 1.2 60
2019-01-30 11:00:00 7.5 9 Oeste 31 Oeste 0 934.9 1.7 63
2019-01-30 10:00:00 6.6 6 Noroeste 24 Oeste 0 934.6 1.6 77
2019-01-30 09:00:00 6.4 6 Oeste 24 Oeste 0 934.1 1.2 84
2019-01-30 08:00:00 6.4 5 Oeste 24 Oeste 0 933.2 0 91
2019-01-30 07:00:00 6.7 7 Oeste 22 Oeste 0 933 -1 91
2019-01-30 06:00:00 7.2 4 Oeste 23 Oeste 0 932.9 -0.9 89
2019-01-30 05:00:00 7.5 5 Oeste 18 Oeste 0 933.2 -0.5 85
2019-01-30 04:00:00 7.8 8 Oeste 29 Sudoeste 0 934 -0.1 85
2019-01-30 03:00:00 7.7 10 Oeste 27 Oeste 0 933.8 -0.5 85
2019-01-30 02:00:00 7.4 12 Oeste 32 Oeste 0.1 933.7 -0.6 85
2019-01-30 01:00:00 7.7 13 Oeste 30 Oeste 0 934.1 0.1 85
2019-01-30 00:00:00 7.9 12 Oeste 33 Oeste 0 934.3 0.9 83
2019-01-29 23:00:00 8.4 17 Oeste 52 Oeste 0 934.3 0.8 79
2019-01-29 22:00:00 8.7 21 Oeste 55 Oeste 0.1 934 0.5 80
2019-01-29 21:00:00 8.9 22 Oeste 54 Oeste 0 933.4 -0.2 71
2019-01-29 20:00:00 8.9 21 Oeste 49 Oeste 0 933.5 -0.4 70
2019-01-29 19:00:00 9.2 20 Oeste 45 Oeste 0 933.5 -1 67
2019-01-29 18:00:00 9.3 24 Oeste 54 Oeste 0 933.6 -1.2 66
2019-01-29 17:00:00 9.8 25 Oeste 55 Oeste 0 933.9 -1.4 60
2019-01-29 16:00:00 9.9 15 Oeste 59 Oeste 0 934.5 -1.9 62
2019-01-29 15:00:00 9.6 22 Oeste 49 Oeste 0 934.8 -2.5 62
2019-01-29 14:00:00 9.3 17 Oeste 44 Oeste 0 935.3 -2.3 63
2019-01-29 13:00:00 8.6 18 Oeste 44 Oeste 0 936.4 -1 68
2019-01-29 12:00:00 8.2 19 Oeste 38 Oeste 0 937.3 -0.8 69
2019-01-29 11:00:00 7.2 7 Oeste 27 Oeste 0 937.6 -0.4 83
2019-01-29 10:00:00 4.6 4 Oeste 14 Oeste 0 937.4 -0.3 94
2019-01-29 09:00:00 3.7 5 Oeste 23 Oeste 0 938.1 0 96
2019-01-29 08:00:00 3.2 3 Oeste 15 Oeste 0 938 -0.2 96
2019-01-29 07:00:00 3.4 8 Oeste 19 Oeste 0 937.7 -0.6 96
2019-01-29 06:00:00 3.2 8 Oeste 17 Oeste 0 938.1 -0.4 96
2019-01-29 05:00:00 2.8 0 Calma 4 Noroeste 0 938.2 0.2 92
2019-01-29 04:00:00 3.6 0 Calma 9 Oeste 0 938.3 0 87
2019-01-29 03:00:00 4.8 3 Oeste 21 Oeste 0 938.5 0.4 84
2019-01-29 02:00:00 6 5 Oeste 23 Oeste 0 938 0.1 80
2019-01-29 01:00:00 6.5 8 Oeste 25 Oeste 0 938.3 0.3 79
2019-01-29 00:00:00 6.4 6 Oeste 28 Oeste 0 938.1 0.2 80
2019-01-28 23:00:00 7.2 12 Oeste 31 Oeste 0 937.9 0.3 76
2019-01-28 22:00:00 7.3 14 Oeste 36 Oeste 0 938 0.7 75
2019-01-28 21:00:00 8.1 14 Oeste 31 Oeste 0 937.9 1.1 68
2019-01-28 20:00:00 9.1 13 Oeste 36 Sudoeste 0 937.6 1.2 61
2019-01-28 19:00:00 9.8 12 Oeste 42 Oeste 0 937.3 1.1 53
2019-01-28 18:00:00 11.5 13 Oeste 38 Oeste 0 936.8 0.6 43
2019-01-28 17:00:00 12.7 17 Oeste 45 Noroeste 0 936.4 -0.4 38
2019-01-28 16:00:00 13.2 15 Oeste 47 Sudoeste 0 936.2 -1.5 33
2019-01-28 15:00:00 13.4 17 Oeste 47 Oeste 0 936.2 -2.6 36
2019-01-28 14:00:00 13.3 12 Oeste 49 Oeste 0 936.8 -1.8 37
2019-01-28 13:00:00 12.1 16 Oeste 46 Oeste 0 937.7 -0.6 41
2019-01-28 12:00:00 11 14 Oeste 32 Oeste 0 938.8 0.2 47
2019-01-28 11:00:00 7.7 12 Oeste 32 Oeste 0 938.6 -0.3 61
2019-01-28 10:00:00 4.3 14 Oeste 32 Oeste 0 938.3 -0.6 77
2019-01-28 09:00:00 2 5 Oeste 18 Sudoeste 0 938.6 -0.2 81
2019-01-28 08:00:00 2.2 3 Sudoeste 12 Sudoeste 0 938.9 0.1 77
2019-01-28 07:00:00 2.2 3 Oeste 13 Sudoeste 0 938.9 -0.1 76
2019-01-28 06:00:00 2.3 6 Oeste 22 Sudoeste 0 938.8 0.2 75
2019-01-28 05:00:00 2.8 9 Oeste 22 Oeste 0 938.8 -0.2 73
2019-01-28 04:00:00 3.2 7 Oeste 25 Oeste 0 939 0.4 73
2019-01-28 03:00:00 3.3 9 Oeste 27 Oeste 0 938.6 0.3 72
2019-01-28 02:00:00 3.7 5 Oeste 21 Oeste 0 939 0.7 68
2019-01-28 01:00:00 4.1 6 Oeste 23 Oeste 0 938.6 0.6 65
2019-01-28 00:00:00 4.2 8 Oeste 21 Oeste 0 938.3 0.4 60
2019-01-27 23:00:00 4.5 9 Oeste 18 Oeste 0 938.3 0.9 57
2019-01-27 22:00:00 5.6 5 Oeste 25 Oeste 0 938 0.9 53
2019-01-27 21:00:00 7.4 9 Oeste 29 Oeste 0 937.9 1.6 46
2019-01-27 20:00:00 8.1 8 Oeste 27 Oeste 0 937.4 1.9 44
2019-01-27 19:00:00 9.2 5 Noroeste 27 Oeste 0 937.1 1.9 41
2019-01-27 18:00:00 10.5 8 Noroeste 43 Oeste 0 936.3 1.1 37
2019-01-27 17:00:00 11.9 14 Oeste 37 Oeste 0 935.5 -0.1 40
2019-01-27 16:00:00 12.5 10 Noroeste 38 Oeste 0 935.2 -0.6 43
2019-01-27 15:00:00 12.2 10 Oeste 40 Oeste 0 935.2 -1.2 46
2019-01-27 14:00:00 10.9 10 Oeste 42 Oeste 0 935.6 -0.3 53
2019-01-27 13:00:00 10.7 15 Oeste 39 Oeste 0 935.8 0.6 57
2019-01-27 12:00:00 10.7 11 Oeste 37 Sudoeste 0 936.4 1.3 60
2019-01-27 11:00:00 9 13 Oeste 32 Sudoeste 0 935.9 0.9 76
2019-01-27 10:00:00 6.1 10 Oeste 37 Sudoeste 0 935.2 0 91
2019-01-27 09:00:00 5.7 10 Oeste 26 Sudoeste 0 935.1 -0.5 90
2019-01-27 08:00:00 5.3 8 Oeste 25 Sudoeste 0 935 -0.8 88
2019-01-27 07:00:00 3.3 3 Oeste 13 Oeste 0 935.2 -1.1 92
2019-01-27 06:00:00 0.9 0 Calma -- -- 0 935.6 -1.8 90
2019-01-27 05:00:00 1.4 0 Calma -- -- 0 935.8 -2.1 85
2019-01-27 04:00:00 2.8 0 Calma 8 Noroeste 0 936.3 -1.9 85
2019-01-27 03:00:00 2.2 0 Calma -- -- 0 937.4 -1 84
2019-01-27 02:00:00 3.2 0 Calma -- -- 0 937.9 -0.9 80
2019-01-27 01:00:00 4.7 0 Calma -- -- 0 938.2 -0.6 74
2019-01-27 00:00:00 4.9 0 Calma -- -- 0 938.4 -0.5 75
2019-01-26 23:00:00 5.9 0 Calma -- -- 0 938.8 -0.4 68
2019-01-26 22:00:00 7.1 0 Calma 11 Oeste 0 938.8 -0.1 63
2019-01-26 21:00:00 7.4 0 Calma 15 Oeste 0 938.9 0 60
2019-01-26 20:00:00 8.8 7 Oeste 13 Noroeste 0 939.2 0 52
2019-01-26 19:00:00 11 3 Oeste 13 Oeste 0 938.9 -0.7 45
2019-01-26 18:00:00 13.1 4 Oeste 23 Oeste 0 938.9 -0.9 38
2019-01-26 17:00:00 15.8 7 Oeste 21 Oeste 0 939.2 -1.7 33
2019-01-26 16:00:00 16.6 6 Oeste 17 Oeste 0 939.6 -2.3 37
2019-01-26 15:00:00 15.1 7 Oeste 16 Oeste 0 939.8 -2.6 43
2019-01-26 14:00:00 13.3 5 Oeste 12 Oeste 0 940.9 -1.5 47
2019-01-26 13:00:00 11.5 4 Oeste 12 Oeste 0 941.9 -0.5 53
2019-01-26 12:00:00 10 0 Calma 8 Sur 0 942.4 0.3 58
2019-01-26 11:00:00 5.8 0 Calma 6 Norte 0 942.4 0.4 79
2019-01-26 10:00:00 3 0 Calma 3 Oeste 0 942.4 1 89
2019-01-26 09:00:00 1.8 0 Calma 5 Oeste 0 942.1 0.8 92
2019-01-26 08:00:00 1.7 0 Calma 7 Oeste 0 942 1 92
2019-01-26 07:00:00 1.8 0 Calma 6 Sur 0 941.4 0.2 91
2019-01-26 06:00:00 2.4 0 Calma 7 Sudoeste 0 941.3 0.3 89
2019-01-26 05:00:00 2.5 0 Calma 10 Oeste 0 941 0.4 86
2019-01-26 04:00:00 3.3 2 Oeste 15 Oeste 0 941.2 0.2 85
2019-01-26 03:00:00 3.4 0 Calma 10 Oeste 0 941 0.4 83
2019-01-26 02:00:00 4.4 0 Calma 12 Noroeste 0 940.6 0.2 79
2019-01-26 01:00:00 5.2 3 Oeste 11 Oeste 0 941 1.1 76
2019-01-26 00:00:00 5.6 2 Noroeste 17 Oeste 0 940.6 0.5 73
2019-01-25 23:00:00 6.8 2 Noroeste 17 Oeste 0 940.4 1.2 68
2019-01-25 22:00:00 8 3 Noroeste 17 Oeste 0 939.9 1.3 64
2019-01-25 21:00:00 8.8 7 Oeste 17 Oeste 0 940.1 2.1 59
2019-01-25 20:00:00 10.7 9 Oeste 21 Oeste 0 939.2 1.1 51
2019-01-25 19:00:00 12 6 Noroeste 16 Oeste 0 938.6 0.7 48
2019-01-25 18:00:00 13.5 6 Oeste 24 Oeste 0 938 0 44
2019-01-25 17:00:00 15.4 7 Noroeste 31 Noroeste 0 938.1 -0.3 40
2019-01-25 16:00:00 15.9 6 Oeste 27 Oeste 0 937.9 -1 40
2019-01-25 15:00:00 15.4 6 Noroeste 34 Oeste 0 938 -1.2 43
2019-01-25 14:00:00 15 6 Noroeste 35 Oeste 0 938.4 -0.6 44
2019-01-25 13:00:00 13.5 9 Noroeste 32 Oeste 0 938.9 0.4 50
2019-01-25 12:00:00 11.9 8 Noroeste 34 Noroeste 0 939.2 0.9 57
2019-01-25 11:00:00 9.9 11 Oeste 31 Oeste 0 939 1.1 68
2019-01-25 10:00:00 7.1 9 Oeste 27 Oeste 0 938.5 1.1 81
2019-01-25 09:00:00 5.4 9 Oeste 21 Oeste 0 938.3 1.3 87
2019-01-25 08:00:00 5.2 8 Oeste 21 Noroeste 0 937.9 1.3 88
2019-01-25 07:00:00 4.8 6 Oeste 17 Oeste 0 937.4 1 88
2019-01-25 06:00:00 5.1 4 Oeste 16 Oeste 0 937 1.7 84
2019-01-25 05:00:00 6.2 7 Oeste 24 Oeste 0 936.6 0.3 78
2019-01-25 04:00:00 7.3 5 Oeste 31 Oeste 0 936.4 0.1 74
2019-01-25 03:00:00 7.2 8 Noroeste 32 Oeste 0 935.3 -0.1 76
2019-01-25 02:00:00 6.8 3 Noroeste 20 Oeste 0 936.3 0.8 75
2019-01-25 01:00:00 7.8 5 Noroeste 32 Oeste 0 936.3 1 72
2019-01-25 00:00:00 8.1 5 Noroeste 24 Oeste 0 935.4 0.4 72
2019-01-24 23:00:00 8.3 2 Noroeste 15 Noroeste 0 935.5 0.8 71
2019-01-24 22:00:00 8.9 2 Noroeste 16 Oeste 0 935.3 1.3 71
2019-01-24 21:00:00 9.5 0 Calma 18 Norte 0.1 935 1.8 72
2019-01-24 20:00:00 10.5 0 Calma 17 Norte 0 934.7 1.9 67
2019-01-24 19:00:00 11.2 4 Noroeste 26 Oeste 0 934 1.7 63
2019-01-24 18:00:00 11.1 6 Oeste 27 Oeste 0.1 933.2 1.2 66
2019-01-24 17:00:00 11.3 4 Noroeste 21 Oeste 0 932.8 1.2 66
2019-01-24 16:00:00 10.8 6 Noroeste 26 Oeste 0 932.3 0 73
2019-01-24 15:00:00 10.6 6 Oeste 35 Oeste 0 932 0.1 73
2019-01-24 14:00:00 12.1 9 Noroeste 30 Oeste 0 931.6 0.2 62
2019-01-24 13:00:00 10.7 6 Noroeste 30 Oeste 0 932.3 1.3 65
2019-01-24 12:00:00 10.8 10 Oeste 42 Oeste 0 931.9 1.5 61
2019-01-24 11:00:00 9.7 12 Oeste 36 Noroeste 0 931.4 1.8 71
2019-01-24 10:00:00 8.8 11 Oeste 44 Oeste 0 931 2.4 74
2019-01-24 09:00:00 8.1 11 Oeste 36 Oeste 0 930.4 1.8 76
2019-01-24 08:00:00 7.4 14 Oeste 35 Oeste 0 929.6 0.9 79
2019-01-24 07:00:00 7.4 16 Oeste 33 Oeste 0 928.6 -0.2 81
2019-01-24 06:00:00 6.4 16 Oeste 32 Oeste 0 928.6 -0.1 83
2019-01-24 05:00:00 6.9 12 Oeste 28 Oeste 0 928.7 -0.6 78
2019-01-24 04:00:00 6.9 17 Oeste 40 Oeste 0 928.8 -0.9 80
2019-01-24 03:00:00 7.4 15 Oeste 36 Oeste 0 928.7 0 79
2019-01-24 02:00:00 7.6 10 Oeste 29 Oeste 0 929.3 0.7 78
2019-01-24 01:00:00 7.6 12 Oeste 30 Oeste 0 929.7 0.7 77
2019-01-24 00:00:00 7.7 16 Oeste 36 Oeste 0 928.7 -0.1 77